sensor_id;sensor_type;location;lat;lon;timestamp;P1;durP1;ratioP1;P2;durP2;ratioP2
78116;SDS011;67887;59.082;37.928;2023-02-28T00:01:11;6.85;;;3.08;;
78116;SDS011;67887;59.082;37.928;2023-02-28T00:03:38;6.22;;;2.75;;
78116;SDS011;67887;59.082;37.928;2023-02-28T00:06:05;7.22;;;3.03;;
78116;SDS011;67887;59.082;37.928;2023-02-28T00:08:32;6.93;;;2.80;;
78116;SDS011;67887;59.082;37.928;2023-02-28T00:11:06;7.45;;;2.85;;
78116;SDS011;67887;59.082;37.928;2023-02-28T00:13:35;7.95;;;3.05;;
78116;SDS011;67887;59.082;37.928;2023-02-28T00:18:31;6.30;;;2.92;;
78116;SDS011;67887;59.082;37.928;2023-02-28T00:20:57;7.15;;;2.90;;
78116;SDS011;67887;59.082;37.928;2023-02-28T00:23:24;6.60;;;2.80;;
78116;SDS011;67887;59.082;37.928;2023-02-28T00:25:51;7.57;;;2.80;;
78116;SDS011;67887;59.082;37.928;2023-02-28T00:28:17;6.53;;;2.83;;
78116;SDS011;67887;59.082;37.928;2023-02-28T00:30:44;5.25;;;2.30;;
78116;SDS011;67887;59.082;37.928;2023-02-28T00:33:11;5.65;;;2.70;;
78116;SDS011;67887;59.082;37.928;2023-02-28T00:35:37;5.85;;;2.28;;
78116;SDS011;67887;59.082;37.928;2023-02-28T00:38:04;6.60;;;2.92;;
78116;SDS011;67887;59.082;37.928;2023-02-28T00:40:30;7.53;;;2.55;;
78116;SDS011;67887;59.082;37.928;2023-02-28T00:42:56;5.65;;;2.50;;
78116;SDS011;67887;59.082;37.928;2023-02-28T00:45:22;5.60;;;2.47;;
78116;SDS011;67887;59.082;37.928;2023-02-28T00:47:49;5.82;;;2.45;;
78116;SDS011;67887;59.082;37.928;2023-02-28T00:50:17;5.53;;;2.28;;
78116;SDS011;67887;59.082;37.928;2023-02-28T00:52:45;7.13;;;2.75;;
78116;SDS011;67887;59.082;37.928;2023-02-28T00:55:13;7.13;;;2.50;;
78116;SDS011;67887;59.082;37.928;2023-02-28T00:57:40;6.38;;;2.42;;
78116;SDS011;67887;59.082;37.928;2023-02-28T01:00:07;6.10;;;2.58;;
78116;SDS011;67887;59.082;37.928;2023-02-28T01:02:33;6.13;;;2.47;;
78116;SDS011;67887;59.082;37.928;2023-02-28T01:05:00;6.63;;;2.50;;
78116;SDS011;67887;59.082;37.928;2023-02-28T01:07:30;6.15;;;2.60;;
78116;SDS011;67887;59.082;37.928;2023-02-28T01:09:56;6.32;;;2.40;;
78116;SDS011;67887;59.082;37.928;2023-02-28T01:12:24;5.90;;;2.50;;
78116;SDS011;67887;59.082;37.928;2023-02-28T01:14:50;6.85;;;2.53;;
78116;SDS011;67887;59.082;37.928;2023-02-28T01:17:16;6.45;;;2.40;;
78116;SDS011;67887;59.082;37.928;2023-02-28T01:19:43;6.07;;;2.50;;
78116;SDS011;67887;59.082;37.928;2023-02-28T01:22:09;6.07;;;2.35;;
78116;SDS011;67887;59.082;37.928;2023-02-28T01:24:36;6.15;;;2.40;;
78116;SDS011;67887;59.082;37.928;2023-02-28T01:27:03;6.20;;;2.40;;
78116;SDS011;67887;59.082;37.928;2023-02-28T01:29:29;5.93;;;2.53;;
78116;SDS011;67887;59.082;37.928;2023-02-28T01:31:56;6.13;;;2.50;;
78116;SDS011;67887;59.082;37.928;2023-02-28T01:34:22;6.45;;;2.28;;
78116;SDS011;67887;59.082;37.928;2023-02-28T01:36:50;6.00;;;2.58;;
78116;SDS011;67887;59.082;37.928;2023-02-28T01:39:18;6.20;;;2.55;;
78116;SDS011;67887;59.082;37.928;2023-02-28T01:41:44;6.00;;;2.33;;
78116;SDS011;67887;59.082;37.928;2023-02-28T01:47:21;5.30;;;2.40;;
78116;SDS011;67887;59.082;37.928;2023-02-28T01:49:50;6.07;;;2.13;;
78116;SDS011;67887;59.082;37.928;2023-02-28T01:52:17;5.90;;;2.20;;
78116;SDS011;67887;59.082;37.928;2023-02-28T01:54:46;6.32;;;2.58;;
78116;SDS011;67887;59.082;37.928;2023-02-28T01:57:18;6.25;;;2.45;;
78116;SDS011;67887;59.082;37.928;2023-02-28T01:59:50;6.07;;;2.50;;
78116;SDS011;67887;59.082;37.928;2023-02-28T02:02:24;5.53;;;2.38;;
78116;SDS011;67887;59.082;37.928;2023-02-28T02:04:53;6.05;;;2.55;;
78116;SDS011;67887;59.082;37.928;2023-02-28T02:07:22;5.63;;;2.40;;
78116;SDS011;67887;59.082;37.928;2023-02-28T02:09:56;6.65;;;2.50;;
78116;SDS011;67887;59.082;37.928;2023-02-28T02:12:34;5.13;;;2.30;;
78116;SDS011;67887;59.082;37.928;2023-02-28T02:15:26;6.13;;;2.50;;
78116;SDS011;67887;59.082;37.928;2023-02-28T02:17:57;6.28;;;2.40;;
78116;SDS011;67887;59.082;37.928;2023-02-28T02:25:56;6.03;;;2.35;;
78116;SDS011;67887;59.082;37.928;2023-02-28T02:31:54;6.15;;;2.40;;
78116;SDS011;67887;59.082;37.928;2023-02-28T02:35:10;5.80;;;2.25;;
78116;SDS011;67887;59.082;37.928;2023-02-28T02:37:29;6.40;;;2.30;;
78116;SDS011;67887;59.082;37.928;2023-02-28T02:40:09;5.85;;;2.10;;
78116;SDS011;67887;59.082;37.928;2023-02-28T02:42:48;6.07;;;2.65;;
78116;SDS011;67887;59.082;37.928;2023-02-28T02:45:18;6.13;;;2.38;;
78116;SDS011;67887;59.082;37.928;2023-02-28T02:47:50;5.80;;;2.35;;
78116;SDS011;67887;59.082;37.928;2023-02-28T02:50:19;5.80;;;2.50;;
78116;SDS011;67887;59.082;37.928;2023-02-28T02:52:53;5.43;;;2.45;;
78116;SDS011;67887;59.082;37.928;2023-02-28T02:55:23;6.18;;;2.65;;
78116;SDS011;67887;59.082;37.928;2023-02-28T02:57:56;5.65;;;2.40;;
78116;SDS011;67887;59.082;37.928;2023-02-28T03:00:27;6.03;;;2.40;;
78116;SDS011;67887;59.082;37.928;2023-02-28T03:02:58;5.85;;;2.30;;
78116;SDS011;67887;59.082;37.928;2023-02-28T03:05:29;6.93;;;2.60;;
78116;SDS011;67887;59.082;37.928;2023-02-28T03:08:02;6.43;;;2.72;;
78116;SDS011;67887;59.082;37.928;2023-02-28T03:13:03;6.22;;;2.50;;
78116;SDS011;67887;59.082;37.928;2023-02-28T03:16:05;6.30;;;2.55;;
78116;SDS011;67887;59.082;37.928;2023-02-28T03:18:59;6.50;;;2.50;;
78116;SDS011;67887;59.082;37.928;2023-02-28T03:21:43;5.93;;;2.47;;
78116;SDS011;67887;59.082;37.928;2023-02-28T03:24:34;6.13;;;2.65;;
78116;SDS011;67887;59.082;37.928;2023-02-28T03:27:23;6.05;;;2.40;;
78116;SDS011;67887;59.082;37.928;2023-02-28T03:30:00;5.70;;;2.25;;
78116;SDS011;67887;59.082;37.928;2023-02-28T03:35:12;6.32;;;2.50;;
78116;SDS011;67887;59.082;37.928;2023-02-28T03:38:00;5.68;;;2.25;;
78116;SDS011;67887;59.082;37.928;2023-02-28T03:40:47;7.80;;;2.50;;
78116;SDS011;67887;59.082;37.928;2023-02-28T03:43:25;5.63;;;2.15;;
78116;SDS011;67887;59.082;37.928;2023-02-28T03:45:55;5.20;;;2.05;;
78116;SDS011;67887;59.082;37.928;2023-02-28T03:48:27;6.57;;;2.40;;
78116;SDS011;67887;59.082;37.928;2023-02-28T03:51:02;6.05;;;1.90;;
78116;SDS011;67887;59.082;37.928;2023-02-28T03:53:33;5.30;;;2.10;;
78116;SDS011;67887;59.082;37.928;2023-02-28T03:56:27;6.05;;;2.25;;
78116;SDS011;67887;59.082;37.928;2023-02-28T04:01:35;5.55;;;2.10;;
78116;SDS011;67887;59.082;37.928;2023-02-28T04:04:04;6.20;;;2.20;;
78116;SDS011;67887;59.082;37.928;2023-02-28T04:06:31;5.20;;;2.00;;
78116;SDS011;67887;59.082;37.928;2023-02-28T04:08:59;5.28;;;2.13;;
78116;SDS011;67887;59.082;37.928;2023-02-28T04:14:06;5.35;;;2.03;;
78116;SDS011;67887;59.082;37.928;2023-02-28T04:16:34;5.10;;;2.13;;
78116;SDS011;67887;59.082;37.928;2023-02-28T04:19:08;4.82;;;1.88;;
78116;SDS011;67887;59.082;37.928;2023-02-28T04:21:36;4.82;;;1.98;;
78116;SDS011;67887;59.082;37.928;2023-02-28T04:24:08;5.72;;;2.20;;
78116;SDS011;67887;59.082;37.928;2023-02-28T04:26:40;4.45;;;1.80;;
78116;SDS011;67887;59.082;37.928;2023-02-28T04:29:09;5.32;;;2.13;;
78116;SDS011;67887;59.082;37.928;2023-02-28T04:31:36;5.07;;;1.88;;
78116;SDS011;67887;59.082;37.928;2023-02-28T04:34:03;5.20;;;2.05;;
78116;SDS011;67887;59.082;37.928;2023-02-28T04:36:29;5.45;;;1.98;;
78116;SDS011;67887;59.082;37.928;2023-02-28T04:38:56;6.03;;;2.28;;
78116;SDS011;67887;59.082;37.928;2023-02-28T04:41:22;4.70;;;1.85;;
78116;SDS011;67887;59.082;37.928;2023-02-28T04:43:50;4.68;;;1.90;;
78116;SDS011;67887;59.082;37.928;2023-02-28T04:46:17;4.93;;;2.08;;
78116;SDS011;67887;59.082;37.928;2023-02-28T04:48:44;5.45;;;1.80;;
78116;SDS011;67887;59.082;37.928;2023-02-28T04:51:11;5.80;;;2.00;;
78116;SDS011;67887;59.082;37.928;2023-02-28T04:53:39;4.18;;;1.83;;
78116;SDS011;67887;59.082;37.928;2023-02-28T04:56:07;4.53;;;1.67;;
78116;SDS011;67887;59.082;37.928;2023-02-28T04:58:34;5.53;;;1.88;;
78116;SDS011;67887;59.082;37.928;2023-02-28T05:01:14;4.93;;;1.98;;
78116;SDS011;67887;59.082;37.928;2023-02-28T05:03:42;4.25;;;1.70;;
78116;SDS011;67887;59.082;37.928;2023-02-28T05:06:09;4.80;;;1.75;;
78116;SDS011;67887;59.082;37.928;2023-02-28T05:08:37;4.97;;;1.83;;
78116;SDS011;67887;59.082;37.928;2023-02-28T05:11:08;5.03;;;2.00;;
78116;SDS011;67887;59.082;37.928;2023-02-28T05:13:39;4.50;;;1.75;;
78116;SDS011;67887;59.082;37.928;2023-02-28T05:16:06;5.00;;;1.80;;
78116;SDS011;67887;59.082;37.928;2023-02-28T05:18:32;5.05;;;1.77;;
78116;SDS011;67887;59.082;37.928;2023-02-28T05:20:59;5.25;;;1.70;;
78116;SDS011;67887;59.082;37.928;2023-02-28T05:23:27;5.90;;;1.90;;
78116;SDS011;67887;59.082;37.928;2023-02-28T05:25:54;4.38;;;1.70;;
78116;SDS011;67887;59.082;37.928;2023-02-28T05:28:20;4.97;;;1.70;;
78116;SDS011;67887;59.082;37.928;2023-02-28T05:30:47;4.65;;;1.60;;
78116;SDS011;67887;59.082;37.928;2023-02-28T05:33:13;5.40;;;1.92;;
78116;SDS011;67887;59.082;37.928;2023-02-28T05:35:40;5.00;;;1.70;;
78116;SDS011;67887;59.082;37.928;2023-02-28T05:38:08;4.97;;;1.80;;
78116;SDS011;67887;59.082;37.928;2023-02-28T05:40:34;3.90;;;1.40;;
78116;SDS011;67887;59.082;37.928;2023-02-28T05:43:01;5.38;;;1.85;;
78116;SDS011;67887;59.082;37.928;2023-02-28T05:45:27;4.75;;;1.70;;
78116;SDS011;67887;59.082;37.928;2023-02-28T05:47:54;4.60;;;1.60;;
78116;SDS011;67887;59.082;37.928;2023-02-28T05:50:21;4.40;;;1.60;;
78116;SDS011;67887;59.082;37.928;2023-02-28T05:52:52;4.20;;;1.60;;
78116;SDS011;67887;59.082;37.928;2023-02-28T05:55:18;4.47;;;1.60;;
78116;SDS011;67887;59.082;37.928;2023-02-28T05:57:44;4.45;;;1.80;;
78116;SDS011;67887;59.082;37.928;2023-02-28T06:00:11;4.40;;;1.98;;
78116;SDS011;67887;59.082;37.928;2023-02-28T06:02:38;4.40;;;1.60;;
78116;SDS011;67887;59.082;37.928;2023-02-28T06:05:09;5.25;;;2.03;;
78116;SDS011;67887;59.082;37.928;2023-02-28T06:07:40;4.28;;;1.80;;
78116;SDS011;67887;59.082;37.928;2023-02-28T06:10:07;5.28;;;1.42;;
78116;SDS011;67887;59.082;37.928;2023-02-28T06:12:34;4.03;;;1.45;;
78116;SDS011;67887;59.082;37.928;2023-02-28T06:15:00;4.20;;;1.65;;
78116;SDS011;67887;59.082;37.928;2023-02-28T06:17:26;4.55;;;1.70;;
78116;SDS011;67887;59.082;37.928;2023-02-28T06:19:53;4.75;;;1.80;;
78116;SDS011;67887;59.082;37.928;2023-02-28T06:22:19;4.00;;;1.50;;
78116;SDS011;67887;59.082;37.928;2023-02-28T06:24:46;4.20;;;1.50;;
78116;SDS011;67887;59.082;37.928;2023-02-28T06:27:12;4.22;;;1.50;;
78116;SDS011;67887;59.082;37.928;2023-02-28T06:29:39;4.00;;;1.70;;
78116;SDS011;67887;59.082;37.928;2023-02-28T06:32:07;4.97;;;1.77;;
78116;SDS011;67887;59.082;37.928;2023-02-28T06:34:34;4.10;;;1.52;;
78116;SDS011;67887;59.082;37.928;2023-02-28T06:37:00;4.13;;;1.60;;
78116;SDS011;67887;59.082;37.928;2023-02-28T06:39:28;4.50;;;1.70;;
78116;SDS011;67887;59.082;37.928;2023-02-28T06:41:55;3.90;;;1.50;;
78116;SDS011;67887;59.082;37.928;2023-02-28T06:44:22;4.47;;;1.60;;
78116;SDS011;67887;59.082;37.928;2023-02-28T06:46:49;4.28;;;1.70;;
78116;SDS011;67887;59.082;37.928;2023-02-28T06:49:15;3.85;;;1.50;;
78116;SDS011;67887;59.082;37.928;2023-02-28T06:51:42;3.42;;;1.30;;
78116;SDS011;67887;59.082;37.928;2023-02-28T06:54:13;4.05;;;1.40;;
78116;SDS011;67887;59.082;37.928;2023-02-28T06:56:39;3.53;;;1.30;;
78116;SDS011;67887;59.082;37.928;2023-02-28T06:59:05;4.10;;;1.40;;
78116;SDS011;67887;59.082;37.928;2023-02-28T07:01:32;4.10;;;1.60;;
78116;SDS011;67887;59.082;37.928;2023-02-28T07:03:59;4.35;;;1.35;;
78116;SDS011;67887;59.082;37.928;2023-02-28T07:06:26;4.20;;;1.52;;
78116;SDS011;67887;59.082;37.928;2023-02-28T07:08:53;4.78;;;1.58;;
78116;SDS011;67887;59.082;37.928;2023-02-28T07:11:20;4.80;;;1.50;;
78116;SDS011;67887;59.082;37.928;2023-02-28T07:13:48;4.00;;;1.30;;
78116;SDS011;67887;59.082;37.928;2023-02-28T07:16:18;4.03;;;1.42;;
78116;SDS011;67887;59.082;37.928;2023-02-28T07:18:44;3.63;;;1.35;;
78116;SDS011;67887;59.082;37.928;2023-02-28T07:21:11;3.83;;;1.38;;
78116;SDS011;67887;59.082;37.928;2023-02-28T07:23:37;4.13;;;1.42;;
78116;SDS011;67887;59.082;37.928;2023-02-28T07:26:10;3.97;;;1.50;;
78116;SDS011;67887;59.082;37.928;2023-02-28T07:28:44;3.55;;;1.23;;
78116;SDS011;67887;59.082;37.928;2023-02-28T07:31:11;3.45;;;1.30;;
78116;SDS011;67887;59.082;37.928;2023-02-28T07:33:39;3.78;;;1.40;;
78116;SDS011;67887;59.082;37.928;2023-02-28T07:36:08;3.80;;;1.58;;
78116;SDS011;67887;59.082;37.928;2023-02-28T07:38:44;3.63;;;1.38;;
78116;SDS011;67887;59.082;37.928;2023-02-28T07:41:14;3.95;;;1.30;;
78116;SDS011;67887;59.082;37.928;2023-02-28T07:43:44;3.63;;;1.20;;
78116;SDS011;67887;59.082;37.928;2023-02-28T07:46:12;4.00;;;1.30;;
78116;SDS011;67887;59.082;37.928;2023-02-28T07:48:43;3.67;;;1.25;;
78116;SDS011;67887;59.082;37.928;2023-02-28T07:51:10;3.75;;;1.40;;
78116;SDS011;67887;59.082;37.928;2023-02-28T07:53:36;3.40;;;1.13;;
78116;SDS011;67887;59.082;37.928;2023-02-28T07:56:02;3.40;;;1.25;;
78116;SDS011;67887;59.082;37.928;2023-02-28T07:58:30;3.63;;;1.20;;
78116;SDS011;67887;59.082;37.928;2023-02-28T08:00:56;3.70;;;1.20;;
78116;SDS011;67887;59.082;37.928;2023-02-28T08:03:31;3.30;;;1.10;;
78116;SDS011;67887;59.082;37.928;2023-02-28T08:05:57;3.42;;;1.13;;
78116;SDS011;67887;59.082;37.928;2023-02-28T08:08:25;3.67;;;1.20;;
78116;SDS011;67887;59.082;37.928;2023-02-28T08:10:54;3.42;;;1.10;;
78116;SDS011;67887;59.082;37.928;2023-02-28T08:13:21;4.07;;;1.25;;
78116;SDS011;67887;59.082;37.928;2023-02-28T08:15:48;3.22;;;1.02;;
78116;SDS011;67887;59.082;37.928;2023-02-28T08:18:14;4.13;;;1.30;;
78116;SDS011;67887;59.082;37.928;2023-02-28T08:20:40;5.45;;;1.30;;
78116;SDS011;67887;59.082;37.928;2023-02-28T08:23:07;3.60;;;1.20;;
78116;SDS011;67887;59.082;37.928;2023-02-28T08:25:33;3.95;;;1.25;;
78116;SDS011;67887;59.082;37.928;2023-02-28T08:28:00;4.63;;;1.60;;
78116;SDS011;67887;59.082;37.928;2023-02-28T08:30:26;4.10;;;1.65;;
78116;SDS011;67887;59.082;37.928;2023-02-28T08:32:52;5.10;;;1.70;;
78116;SDS011;67887;59.082;37.928;2023-02-28T08:35:19;4.55;;;1.85;;
78116;SDS011;67887;59.082;37.928;2023-02-28T08:37:47;5.65;;;2.05;;
78116;SDS011;67887;59.082;37.928;2023-02-28T08:40:15;6.07;;;1.65;;
78116;SDS011;67887;59.082;37.928;2023-02-28T08:42:47;7.72;;;2.40;;
78116;SDS011;67887;59.082;37.928;2023-02-28T08:45:14;6.95;;;1.70;;
78116;SDS011;67887;59.082;37.928;2023-02-28T08:47:40;7.45;;;1.90;;
78116;SDS011;67887;59.082;37.928;2023-02-28T08:50:07;6.63;;;2.40;;
78116;SDS011;67887;59.082;37.928;2023-02-28T08:52:34;7.38;;;2.47;;
78116;SDS011;67887;59.082;37.928;2023-02-28T08:55:00;7.38;;;2.53;;
78116;SDS011;67887;59.082;37.928;2023-02-28T08:57:26;6.43;;;2.03;;
78116;SDS011;67887;59.082;37.928;2023-02-28T08:59:53;7.57;;;2.20;;
78116;SDS011;67887;59.082;37.928;2023-02-28T09:02:19;11.73;;;3.38;;
78116;SDS011;67887;59.082;37.928;2023-02-28T09:04:45;9.52;;;4.10;;
78116;SDS011;67887;59.082;37.928;2023-02-28T09:07:12;12.02;;;4.70;;
78116;SDS011;67887;59.082;37.928;2023-02-28T09:09:38;14.07;;;4.57;;
78116;SDS011;67887;59.082;37.928;2023-02-28T09:12:22;11.85;;;4.53;;
78116;SDS011;67887;59.082;37.928;2023-02-28T09:14:52;10.40;;;3.83;;
78116;SDS011;67887;59.082;37.928;2023-02-28T09:17:19;8.95;;;3.70;;
78116;SDS011;67887;59.082;37.928;2023-02-28T09:19:47;10.55;;;3.95;;
78116;SDS011;67887;59.082;37.928;2023-02-28T09:22:14;8.32;;;3.53;;
78116;SDS011;67887;59.082;37.928;2023-02-28T09:24:41;9.88;;;3.65;;
78116;SDS011;67887;59.082;37.928;2023-02-28T09:27:07;13.20;;;3.47;;
78116;SDS011;67887;59.082;37.928;2023-02-28T09:29:34;8.68;;;3.17;;
78116;SDS011;67887;59.082;37.928;2023-02-28T09:32:00;10.52;;;3.67;;
78116;SDS011;67887;59.082;37.928;2023-02-28T09:34:27;10.70;;;3.67;;
78116;SDS011;67887;59.082;37.928;2023-02-28T09:36:56;7.85;;;2.85;;
78116;SDS011;67887;59.082;37.928;2023-02-28T09:39:22;8.48;;;2.85;;
78116;SDS011;67887;59.082;37.928;2023-02-28T09:41:55;7.70;;;2.30;;
78116;SDS011;67887;59.082;37.928;2023-02-28T09:44:31;8.73;;;2.70;;
78116;SDS011;67887;59.082;37.928;2023-02-28T09:47:11;9.63;;;3.42;;
78116;SDS011;67887;59.082;37.928;2023-02-28T09:49:42;14.23;;;4.30;;
78116;SDS011;67887;59.082;37.928;2023-02-28T09:52:19;11.20;;;4.03;;
78116;SDS011;67887;59.082;37.928;2023-02-28T09:54:48;10.90;;;3.25;;
78116;SDS011;67887;59.082;37.928;2023-02-28T09:57:24;7.85;;;2.20;;
78116;SDS011;67887;59.082;37.928;2023-02-28T10:05:33;6.53;;;1.75;;
78116;SDS011;67887;59.082;37.928;2023-02-28T10:10:45;5.93;;;2.15;;
78116;SDS011;67887;59.082;37.928;2023-02-28T10:13:27;7.90;;;2.13;;
78116;SDS011;67887;59.082;37.928;2023-02-28T10:16:03;8.38;;;2.35;;
78116;SDS011;67887;59.082;37.928;2023-02-28T10:18:40;7.72;;;2.17;;
78116;SDS011;67887;59.082;37.928;2023-02-28T10:21:15;9.05;;;2.20;;
78116;SDS011;67887;59.082;37.928;2023-02-28T10:23:46;4.97;;;1.67;;
78116;SDS011;67887;59.082;37.928;2023-02-28T10:26:14;6.28;;;1.90;;
78116;SDS011;67887;59.082;37.928;2023-02-28T10:28:43;6.47;;;1.98;;
78116;SDS011;67887;59.082;37.928;2023-02-28T10:31:14;7.85;;;2.10;;
78116;SDS011;67887;59.082;37.928;2023-02-28T10:33:43;7.32;;;2.58;;
78116;SDS011;67887;59.082;37.928;2023-02-28T10:36:14;6.95;;;2.20;;
78116;SDS011;67887;59.082;37.928;2023-02-28T10:38:43;4.78;;;1.77;;
78116;SDS011;67887;59.082;37.928;2023-02-28T10:41:11;5.95;;;1.50;;
78116;SDS011;67887;59.082;37.928;2023-02-28T10:43:42;4.38;;;1.42;;
78116;SDS011;67887;59.082;37.928;2023-02-28T10:48:38;6.15;;;1.55;;
78116;SDS011;67887;59.082;37.928;2023-02-28T10:51:12;5.45;;;1.58;;
78116;SDS011;67887;59.082;37.928;2023-02-28T11:01:21;6.25;;;2.10;;
78116;SDS011;67887;59.082;37.928;2023-02-28T11:03:51;9.55;;;3.85;;
78116;SDS011;67887;59.082;37.928;2023-02-28T11:06:21;11.43;;;4.65;;
78116;SDS011;67887;59.082;37.928;2023-02-28T11:08:59;11.07;;;4.38;;
78116;SDS011;67887;59.082;37.928;2023-02-28T11:11:29;11.13;;;4.20;;
78116;SDS011;67887;59.082;37.928;2023-02-28T11:14:14;12.35;;;4.93;;
78116;SDS011;67887;59.082;37.928;2023-02-28T11:16:45;13.88;;;5.60;;
78116;SDS011;67887;59.082;37.928;2023-02-28T11:19:45;11.82;;;5.70;;
78116;SDS011;67887;59.082;37.928;2023-02-28T11:22:09;16.17;;;6.97;;
78116;SDS011;67887;59.082;37.928;2023-02-28T11:24:37;14.23;;;6.90;;
78116;SDS011;67887;59.082;37.928;2023-02-28T11:29:57;11.38;;;4.82;;
78116;SDS011;67887;59.082;37.928;2023-02-28T11:32:24;8.88;;;3.78;;
78116;SDS011;67887;59.082;37.928;2023-02-28T11:37:39;10.27;;;3.42;;
78116;SDS011;67887;59.082;37.928;2023-02-28T11:40:05;10.80;;;3.15;;
78116;SDS011;67887;59.082;37.928;2023-02-28T11:42:45;7.97;;;2.83;;
78116;SDS011;67887;59.082;37.928;2023-02-28T11:45:19;11.38;;;5.47;;
78116;SDS011;67887;59.082;37.928;2023-02-28T11:50:55;14.85;;;8.48;;
78116;SDS011;67887;59.082;37.928;2023-02-28T12:04:24;10.00;;;4.35;;
78116;SDS011;67887;59.082;37.928;2023-02-28T12:07:20;8.23;;;3.10;;
78116;SDS011;67887;59.082;37.928;2023-02-28T12:18:33;7.45;;;3.08;;
78116;SDS011;67887;59.082;37.928;2023-02-28T12:21:08;5.65;;;2.10;;
78116;SDS011;67887;59.082;37.928;2023-02-28T12:26:46;5.32;;;1.63;;
78116;SDS011;67887;59.082;37.928;2023-02-28T12:32:03;5.55;;;1.65;;
78116;SDS011;67887;59.082;37.928;2023-02-28T12:34:36;9.88;;;1.52;;
78116;SDS011;67887;59.082;37.928;2023-02-28T12:37:10;6.78;;;1.42;;
78116;SDS011;67887;59.082;37.928;2023-02-28T12:39:46;5.95;;;1.52;;
78116;SDS011;67887;59.082;37.928;2023-02-28T12:44:54;7.82;;;1.67;;
78116;SDS011;67887;59.082;37.928;2023-02-28T12:47:25;5.40;;;1.80;;
78116;SDS011;67887;59.082;37.928;2023-02-28T12:49:58;7.60;;;2.30;;
78116;SDS011;67887;59.082;37.928;2023-02-28T12:52:46;8.60;;;2.47;;
78116;SDS011;67887;59.082;37.928;2023-02-28T12:57:42;7.05;;;2.40;;
78116;SDS011;67887;59.082;37.928;2023-02-28T13:11:25;6.53;;;2.30;;
78116;SDS011;67887;59.082;37.928;2023-02-28T13:13:59;8.20;;;2.20;;
78116;SDS011;67887;59.082;37.928;2023-02-28T13:19:39;6.65;;;2.35;;
78116;SDS011;67887;59.082;37.928;2023-02-28T13:22:19;7.55;;;2.00;;
78116;SDS011;67887;59.082;37.928;2023-02-28T13:24:47;6.20;;;2.05;;
78116;SDS011;67887;59.082;37.928;2023-02-28T13:29:41;6.55;;;2.05;;
78116;SDS011;67887;59.082;37.928;2023-02-28T13:34:37;7.28;;;1.60;;
78116;SDS011;67887;59.082;37.928;2023-02-28T13:39:50;7.07;;;1.45;;
78116;SDS011;67887;59.082;37.928;2023-02-28T13:47:28;5.22;;;1.73;;
78116;SDS011;67887;59.082;37.928;2023-02-28T14:07:06;8.38;;;2.10;;
78116;SDS011;67887;59.082;37.928;2023-02-28T14:09:34;5.93;;;1.80;;
78116;SDS011;67887;59.082;37.928;2023-02-28T14:17:57;4.22;;;1.23;;
78116;SDS011;67887;59.082;37.928;2023-02-28T14:20:26;6.88;;;1.42;;
78116;SDS011;67887;59.082;37.928;2023-02-28T14:26:00;5.65;;;1.45;;
78116;SDS011;67887;59.082;37.928;2023-02-28T14:28:40;5.80;;;1.83;;
78116;SDS011;67887;59.082;37.928;2023-02-28T14:31:13;6.75;;;2.10;;
78116;SDS011;67887;59.082;37.928;2023-02-28T14:34:26;6.53;;;2.40;;
78116;SDS011;67887;59.082;37.928;2023-02-28T14:36:50;7.32;;;3.08;;
78116;SDS011;67887;59.082;37.928;2023-02-28T14:39:22;8.32;;;2.40;;
78116;SDS011;67887;59.082;37.928;2023-02-28T14:41:50;5.95;;;2.00;;
78116;SDS011;67887;59.082;37.928;2023-02-28T14:44:19;6.35;;;1.63;;
78116;SDS011;67887;59.082;37.928;2023-02-28T14:46:50;6.82;;;1.88;;
78116;SDS011;67887;59.082;37.928;2023-02-28T14:49:21;5.75;;;2.08;;
78116;SDS011;67887;59.082;37.928;2023-02-28T14:51:50;8.35;;;1.80;;
78116;SDS011;67887;59.082;37.928;2023-02-28T14:54:30;6.63;;;1.30;;
78116;SDS011;67887;59.082;37.928;2023-02-28T14:56:56;8.05;;;1.77;;
78116;SDS011;67887;59.082;37.928;2023-02-28T14:59:24;7.70;;;1.80;;
78116;SDS011;67887;59.082;37.928;2023-02-28T15:04:42;8.85;;;2.00;;
78116;SDS011;67887;59.082;37.928;2023-02-28T15:07:13;8.20;;;2.22;;
78116;SDS011;67887;59.082;37.928;2023-02-28T15:09:40;10.18;;;2.22;;
78116;SDS011;67887;59.082;37.928;2023-02-28T15:12:06;8.35;;;2.30;;
78116;SDS011;67887;59.082;37.928;2023-02-28T15:14:33;8.90;;;2.08;;
78116;SDS011;67887;59.082;37.928;2023-02-28T15:17:06;8.80;;;2.47;;
78116;SDS011;67887;59.082;37.928;2023-02-28T15:19:41;9.25;;;2.65;;
78116;SDS011;67887;59.082;37.928;2023-02-28T15:22:12;9.45;;;3.13;;
78116;SDS011;67887;59.082;37.928;2023-02-28T15:24:44;9.80;;;2.90;;
78116;SDS011;67887;59.082;37.928;2023-02-28T15:27:25;9.35;;;2.50;;
78116;SDS011;67887;59.082;37.928;2023-02-28T15:29:58;7.38;;;2.90;;
78116;SDS011;67887;59.082;37.928;2023-02-28T15:32:31;8.57;;;2.40;;
78116;SDS011;67887;59.082;37.928;2023-02-28T15:35:16;7.90;;;1.73;;
78116;SDS011;67887;59.082;37.928;2023-02-28T15:37:48;11.05;;;2.30;;
78116;SDS011;67887;59.082;37.928;2023-02-28T15:40:40;13.63;;;2.10;;
78116;SDS011;67887;59.082;37.928;2023-02-28T15:43:15;10.23;;;2.40;;
78116;SDS011;67887;59.082;37.928;2023-02-28T15:45:46;8.68;;;1.70;;
78116;SDS011;67887;59.082;37.928;2023-02-28T15:48:23;10.75;;;2.00;;
78116;SDS011;67887;59.082;37.928;2023-02-28T15:53:40;7.80;;;1.60;;
78116;SDS011;67887;59.082;37.928;2023-02-28T15:56:27;7.85;;;2.25;;
78116;SDS011;67887;59.082;37.928;2023-02-28T15:58:57;7.47;;;1.90;;
78116;SDS011;67887;59.082;37.928;2023-02-28T16:01:32;5.78;;;1.58;;
78116;SDS011;67887;59.082;37.928;2023-02-28T16:04:00;5.10;;;1.40;;
78116;SDS011;67887;59.082;37.928;2023-02-28T16:06:33;4.18;;;1.60;;
78116;SDS011;67887;59.082;37.928;2023-02-28T16:09:25;11.15;;;1.55;;
78116;SDS011;67887;59.082;37.928;2023-02-28T16:11:54;5.00;;;1.30;;
78116;SDS011;67887;59.082;37.928;2023-02-28T16:14:23;5.38;;;1.65;;
78116;SDS011;67887;59.082;37.928;2023-02-28T16:16:54;4.97;;;1.50;;
78116;SDS011;67887;59.082;37.928;2023-02-28T16:19:23;4.68;;;1.40;;
78116;SDS011;67887;59.082;37.928;2023-02-28T16:21:51;6.78;;;1.70;;
78116;SDS011;67887;59.082;37.928;2023-02-28T16:24:18;5.03;;;1.70;;
78116;SDS011;67887;59.082;37.928;2023-02-28T16:26:46;6.70;;;1.80;;
78116;SDS011;67887;59.082;37.928;2023-02-28T16:29:15;5.32;;;1.77;;
78116;SDS011;67887;59.082;37.928;2023-02-28T16:32:05;4.47;;;1.60;;
78116;SDS011;67887;59.082;37.928;2023-02-28T16:34:32;6.13;;;1.90;;
78116;SDS011;67887;59.082;37.928;2023-02-28T16:36:58;5.38;;;1.75;;
78116;SDS011;67887;59.082;37.928;2023-02-28T16:39:24;6.13;;;1.65;;
78116;SDS011;67887;59.082;37.928;2023-02-28T16:41:51;4.72;;;1.33;;
78116;SDS011;67887;59.082;37.928;2023-02-28T16:44:27;5.10;;;1.33;;
78116;SDS011;67887;59.082;37.928;2023-02-28T16:47:02;3.58;;;1.10;;
78116;SDS011;67887;59.082;37.928;2023-02-28T16:49:35;4.50;;;1.58;;
78116;SDS011;67887;59.082;37.928;2023-02-28T16:52:01;5.95;;;1.67;;
78116;SDS011;67887;59.082;37.928;2023-02-28T16:54:27;4.13;;;1.38;;
78116;SDS011;67887;59.082;37.928;2023-02-28T16:56:59;4.38;;;1.40;;
78116;SDS011;67887;59.082;37.928;2023-02-28T16:59:25;5.35;;;1.42;;
78116;SDS011;67887;59.082;37.928;2023-02-28T17:01:53;5.05;;;1.40;;
78116;SDS011;67887;59.082;37.928;2023-02-28T17:04:19;5.00;;;1.40;;
78116;SDS011;67887;59.082;37.928;2023-02-28T17:06:45;4.45;;;1.27;;
78116;SDS011;67887;59.082;37.928;2023-02-28T17:09:22;4.22;;;1.35;;
78116;SDS011;67887;59.082;37.928;2023-02-28T17:11:49;4.40;;;1.27;;
78116;SDS011;67887;59.082;37.928;2023-02-28T17:14:15;4.35;;;1.20;;